createdAt,value
2023-04-16T00:00:52.634Z,5.28
2023-04-16T00:02:54.515Z,5.50
2023-04-16T00:04:56.873Z,5.18
2023-04-16T00:06:58.553Z,6.63
2023-04-16T00:09:00.293Z,6.28
2023-04-16T00:11:01.941Z,5.55
2023-04-16T00:13:03.650Z,6.38
2023-04-16T00:15:05.619Z,6.28
2023-04-16T00:17:07.357Z,6.85
2023-04-16T00:19:09.215Z,6.50
2023-04-16T00:21:11.256Z,6.15
2023-04-16T00:23:12.955Z,6.65
2023-04-16T00:25:14.792Z,6.32
2023-04-16T00:27:16.475Z,5.93
2023-04-16T00:29:18.239Z,5.70
2023-04-16T00:31:31.596Z,6.28
2023-04-16T00:33:33.322Z,5.88
2023-04-16T00:35:35.483Z,5.88
2023-04-16T00:37:37.153Z,6.30
2023-04-16T00:39:38.897Z,5.20
2023-04-16T00:41:41.222Z,5.85
2023-04-16T00:43:43.078Z,6.45
2023-04-16T00:45:44.732Z,6.72
2023-04-16T00:47:46.447Z,5.90
2023-04-16T00:49:48.247Z,5.90
2023-04-16T00:51:50.403Z,5.07
2023-04-16T00:53:52.629Z,5.75
2023-04-16T00:55:56.227Z,5.60
2023-04-16T00:57:57.927Z,5.25
2023-04-16T00:59:59.624Z,6.75
2023-04-16T01:02:01.757Z,6.03
2023-04-16T01:04:04.234Z,5.53
2023-04-16T01:06:07.488Z,5.10
2023-04-16T01:08:27.366Z,5.82
2023-04-16T01:10:28.985Z,6.00
2023-04-16T01:12:30.727Z,5.55
2023-04-16T01:14:36.394Z,4.20
2023-04-16T01:16:38.234Z,6.32
2023-04-16T01:18:40.017Z,5.28
2023-04-16T01:20:41.697Z,5.38
2023-04-16T01:22:43.296Z,5.57
2023-04-16T01:24:45.653Z,4.57
2023-04-16T01:26:47.298Z,6.15
2023-04-16T01:28:49.004Z,4.95
2023-04-16T01:30:50.772Z,5.50
2023-04-16T01:32:52.588Z,5.75
2023-04-16T01:34:54.464Z,5.13
2023-04-16T01:36:56.380Z,5.82
2023-04-16T01:38:58.076Z,4.78
2023-04-16T01:41:00.046Z,5.50
2023-04-16T01:43:01.864Z,5.25
2023-04-16T01:45:03.929Z,5.25
2023-04-16T01:47:05.616Z,6.30
2023-04-16T01:49:07.716Z,7.10
2023-04-16T01:51:10.183Z,5.97
2023-04-16T01:53:11.894Z,5.25
2023-04-16T01:55:13.776Z,4.97
2023-04-16T01:57:15.449Z,5.57
2023-04-16T01:59:20.631Z,7.10
2023-04-16T02:01:22.504Z,5.93
2023-04-16T02:03:25.012Z,5.45
2023-04-16T02:05:26.805Z,7.18
2023-04-16T02:07:28.673Z,7.05
2023-04-16T02:09:30.472Z,8.00
2023-04-16T02:11:32.228Z,7.40
2023-04-16T02:13:33.903Z,7.95
2023-04-16T02:15:35.599Z,7.35
2023-04-16T02:17:37.300Z,7.20
2023-04-16T02:19:38.986Z,7.35
2023-04-16T02:21:41.829Z,8.15
2023-04-16T02:23:47.631Z,7.65
2023-04-16T02:25:49.281Z,8.13
2023-04-16T02:27:51.149Z,6.55
2023-04-16T02:29:52.874Z,6.80
2023-04-16T02:31:54.715Z,7.40
2023-04-16T02:33:56.438Z,8.13
2023-04-16T02:35:58.117Z,6.50
2023-04-16T02:37:59.812Z,7.00
2023-04-16T02:40:01.821Z,7.45
2023-04-16T02:42:03.591Z,7.53
2023-04-16T02:44:05.673Z,7.43
2023-04-16T02:46:07.465Z,8.35
2023-04-16T02:48:09.799Z,8.73
2023-04-16T02:50:11.836Z,8.02
2023-04-16T02:52:15.550Z,7.38
2023-04-16T02:54:17.455Z,7.70
2023-04-16T02:56:19.081Z,7.22
2023-04-16T02:58:21.846Z,7.97
2023-04-16T03:00:23.649Z,8.88
2023-04-16T03:02:25.619Z,7.72
2023-04-16T03:04:27.430Z,7.95
2023-04-16T03:06:29.160Z,7.53
2023-04-16T03:08:30.829Z,8.85
2023-04-16T03:10:32.625Z,8.32
2023-04-16T03:12:34.415Z,8.90
2023-04-16T03:14:36.336Z,7.65
2023-04-16T03:16:38.119Z,7.68
2023-04-16T03:18:39.786Z,8.30
2023-04-16T03:20:41.432Z,7.40
2023-04-16T03:22:43.458Z,7.38
2023-04-16T03:24:45.207Z,8.38
2023-04-16T03:26:46.852Z,9.00
2023-04-16T03:28:48.586Z,8.57
2023-04-16T03:30:52.652Z,8.20
2023-04-16T03:32:54.424Z,7.30
2023-04-16T03:34:56.130Z,7.90
2023-04-16T03:36:57.767Z,7.50
2023-04-16T03:38:59.469Z,8.23
2023-04-16T03:41:01.092Z,7.60
2023-04-16T03:43:02.789Z,8.00
2023-04-16T03:45:04.908Z,8.00
2023-04-16T03:47:06.661Z,8.48
2023-04-16T03:49:08.603Z,8.68
2023-04-16T03:51:10.561Z,8.63
2023-04-16T03:53:12.232Z,8.10
2023-04-16T03:55:14.083Z,7.85
2023-04-16T03:57:15.846Z,8.45
2023-04-16T03:59:17.858Z,9.13
2023-04-16T04:01:19.570Z,10.52
2023-04-16T04:03:21.412Z,9.48
2023-04-16T04:05:23.313Z,7.60
2023-04-16T04:07:25.005Z,8.50
2023-04-16T04:09:26.758Z,8.55
2023-04-16T04:11:28.431Z,8.50
2023-04-16T04:13:30.074Z,9.00
2023-04-16T04:15:32.250Z,9.18
2023-04-16T04:17:33.972Z,9.07
2023-04-16T04:19:36.267Z,8.15
2023-04-16T04:21:38.805Z,9.85
2023-04-16T04:23:41.763Z,9.23
2023-04-16T04:25:44.151Z,9.90
2023-04-16T04:27:45.927Z,10.23
2023-04-16T04:29:47.605Z,8.88
2023-04-16T04:31:49.358Z,9.07
2023-04-16T04:33:51.179Z,10.00
2023-04-16T04:35:53.372Z,8.68
2023-04-16T04:37:55.087Z,10.90
2023-04-16T04:39:56.782Z,10.57
2023-04-16T04:41:58.512Z,9.85
2023-04-16T04:44:00.194Z,8.73
2023-04-16T04:46:01.987Z,9.18
2023-04-16T04:48:03.876Z,9.77
2023-04-16T04:50:06.454Z,9.45
2023-04-16T04:52:08.492Z,9.20
2023-04-16T04:54:10.267Z,9.55
2023-04-16T04:56:13.089Z,9.35
2023-04-16T04:58:14.974Z,11.63
2023-04-16T05:00:16.728Z,9.63
2023-04-16T05:02:18.470Z,9.52
2023-04-16T05:04:20.251Z,9.50
2023-04-16T05:06:22.098Z,9.05
2023-04-16T05:08:23.785Z,9.48
2023-04-16T05:10:25.537Z,8.48
2023-04-16T05:12:27.261Z,8.50
2023-04-16T05:14:29.042Z,9.10
2023-04-16T05:16:30.959Z,9.15
2023-04-16T05:18:33.516Z,9.02
2023-04-16T05:20:35.347Z,8.73
2023-04-16T05:22:37.181Z,9.55
2023-04-16T05:24:38.972Z,9.35
2023-04-16T05:26:40.612Z,8.80
2023-04-16T05:28:42.281Z,9.73
2023-04-16T05:30:43.936Z,8.63
2023-04-16T05:32:45.881Z,9.05
2023-04-16T05:34:47.650Z,8.70
2023-04-16T05:36:49.349Z,8.38
2023-04-16T05:38:51.026Z,9.32
2023-04-16T05:40:52.757Z,8.32
2023-04-16T05:42:54.435Z,8.27
2023-04-16T05:44:56.373Z,9.05
2023-04-16T05:46:58.073Z,9.60
2023-04-16T05:48:59.921Z,8.77
2023-04-16T05:51:02.786Z,10.13
2023-04-16T05:53:06.801Z,9.10
2023-04-16T05:55:09.077Z,9.05
2023-04-16T05:57:10.869Z,9.90
2023-04-16T05:59:12.572Z,10.18
2023-04-16T06:01:14.274Z,9.02
2023-04-16T06:03:16.080Z,8.70
2023-04-16T06:05:17.893Z,10.50
2023-04-16T06:07:19.560Z,10.15
2023-04-16T06:09:21.311Z,9.45
2023-04-16T06:11:23.221Z,10.18
2023-04-16T06:13:25.102Z,10.50
2023-04-16T06:15:26.828Z,9.57
2023-04-16T06:17:28.515Z,9.73
2023-04-16T06:19:30.322Z,9.07
2023-04-16T06:21:32.282Z,8.90
2023-04-16T06:23:34.077Z,11.10
2023-04-16T06:25:35.762Z,9.57
2023-04-16T06:27:37.516Z,10.40
2023-04-16T06:29:41.555Z,10.32
2023-04-16T06:31:43.648Z,9.38
2023-04-16T06:33:45.367Z,10.65
2023-04-16T06:35:47.119Z,10.57
2023-04-16T06:37:48.834Z,9.70
2023-04-16T06:39:50.581Z,9.80
2023-04-16T06:41:52.344Z,9.32
2023-04-16T06:43:54.038Z,9.43
2023-04-16T06:45:55.757Z,10.35
2023-04-16T06:47:59.106Z,8.90
2023-04-16T06:50:00.922Z,10.43
2023-04-16T06:52:05.176Z,9.48
2023-04-16T06:54:07.624Z,11.27
2023-04-16T06:56:09.338Z,10.07
2023-04-16T06:58:11.189Z,9.45
2023-04-16T07:00:13.274Z,9.55
2023-04-16T07:02:15.044Z,11.00
2023-04-16T07:04:16.850Z,9.93
2023-04-16T07:06:18.737Z,7.63
2023-04-16T07:08:20.670Z,9.00
2023-04-16T07:10:22.350Z,9.60
2023-04-16T07:12:24.007Z,8.32
2023-04-16T07:14:25.734Z,9.00
2023-04-16T07:16:27.861Z,9.13
2023-04-16T07:18:29.675Z,8.63
2023-04-16T07:20:31.341Z,8.98
2023-04-16T07:22:33.020Z,9.10
2023-04-16T07:24:35.807Z,8.57
2023-04-16T07:26:37.765Z,8.85
2023-04-16T07:28:39.501Z,7.88
2023-04-16T07:30:41.178Z,7.13
2023-04-16T07:32:42.888Z,8.27
2023-04-16T07:34:44.682Z,7.88
2023-04-16T07:36:46.369Z,8.65
2023-04-16T07:38:48.067Z,8.55
2023-04-16T07:40:49.833Z,7.60
2023-04-16T07:42:51.593Z,8.45
2023-04-16T07:44:53.463Z,8.52
2023-04-16T07:46:55.208Z,8.18
2023-04-16T07:48:56.934Z,7.93
2023-04-16T07:50:58.733Z,7.93
2023-04-16T07:53:00.416Z,7.18
2023-04-16T07:55:02.157Z,8.57
2023-04-16T07:57:03.764Z,8.82
2023-04-16T07:59:21.133Z,9.23
2023-04-16T08:01:24.155Z,7.20
2023-04-16T08:03:26.178Z,7.97
2023-04-16T08:05:28.147Z,8.45
2023-04-16T08:07:29.871Z,7.25
2023-04-16T08:09:31.987Z,7.50
2023-04-16T08:11:33.973Z,8.55
2023-04-16T08:13:36.151Z,7.35
2023-04-16T08:15:40.935Z,7.65
2023-04-16T08:17:42.746Z,7.65
2023-04-16T08:19:47.641Z,7.65
2023-04-16T08:21:49.641Z,8.90
2023-04-16T08:23:51.468Z,7.38
2023-04-16T08:25:53.203Z,7.43
2023-04-16T08:27:55.106Z,7.95
2023-04-16T08:29:56.934Z,8.27
2023-04-16T08:31:59.660Z,6.75
2023-04-16T08:34:04.546Z,8.45
2023-04-16T08:36:06.405Z,8.25
2023-04-16T08:38:08.102Z,7.38
2023-04-16T08:40:10.067Z,8.20
2023-04-16T08:42:23.102Z,7.72
2023-04-16T08:44:27.607Z,8.65
2023-04-16T08:46:30.200Z,7.13
2023-04-16T08:48:34.197Z,8.65
2023-04-16T08:50:36.455Z,9.00
2023-04-16T08:52:40.285Z,7.28
2023-04-16T08:54:58.552Z,8.15
2023-04-16T08:57:00.642Z,8.27
2023-04-16T08:59:05.569Z,8.27
2023-04-16T09:01:09.734Z,7.90
2023-04-16T09:03:11.667Z,7.97
2023-04-16T09:05:21.606Z,8.05
2023-04-16T09:07:24.428Z,7.82
2023-04-16T09:09:26.798Z,6.93
2023-04-16T09:11:28.532Z,6.70
2023-04-16T09:13:31.944Z,7.75
2023-04-16T09:15:35.208Z,8.05
2023-04-16T09:17:37.047Z,6.43
2023-04-16T09:19:38.848Z,7.38
2023-04-16T09:21:41.937Z,7.63
2023-04-16T09:23:44.306Z,7.60
2023-04-16T09:25:46.148Z,7.22
2023-04-16T09:27:50.894Z,8.32
2023-04-16T09:29:52.638Z,8.18
2023-04-16T09:32:04.905Z,7.65
2023-04-16T09:34:08.227Z,8.00
2023-04-16T09:36:10.802Z,7.35
2023-04-16T09:38:12.463Z,7.20
2023-04-16T09:40:14.266Z,7.93
2023-04-16T09:42:15.945Z,8.00
2023-04-16T09:44:17.632Z,9.02
2023-04-16T09:46:19.384Z,9.18
2023-04-16T09:48:34.272Z,9.25
2023-04-16T09:50:35.917Z,7.80
2023-04-16T09:52:40.908Z,9.25
2023-04-16T09:54:53.419Z,8.35
2023-04-16T09:56:56.906Z,8.55
2023-04-16T09:59:00.457Z,9.80
2023-04-16T10:01:12.980Z,7.55
2023-04-16T10:03:14.928Z,7.22
2023-04-16T10:05:18.739Z,7.25
2023-04-16T10:07:38.546Z,8.63
2023-04-16T10:09:50.918Z,8.27
2023-04-16T10:11:52.679Z,7.57
2023-04-16T10:13:54.405Z,7.75
2023-04-16T10:15:57.352Z,8.30
2023-04-16T10:18:00.329Z,7.50
2023-04-16T10:20:07.024Z,8.52
2023-04-16T10:22:09.058Z,8.90
2023-04-16T10:24:10.918Z,8.40
2023-04-16T10:26:12.743Z,8.23
2023-04-16T10:28:15.451Z,9.18
2023-04-16T10:30:18.097Z,9.73
2023-04-16T10:32:21.897Z,8.02
2023-04-16T10:34:24.893Z,7.72
2023-04-16T10:36:26.719Z,8.32
2023-04-16T10:38:28.589Z,9.13
2023-04-16T10:40:30.368Z,9.48
2023-04-16T10:42:32.155Z,9.90
2023-04-16T10:44:33.911Z,9.52
2023-04-16T10:46:40.705Z,9.27
2023-04-16T10:48:49.702Z,9.25
2023-04-16T10:50:57.544Z,10.13
2023-04-16T10:53:28.963Z,8.73
2023-04-16T10:55:30.709Z,8.80
2023-04-16T10:57:32.354Z,9.85
2023-04-16T10:59:36.208Z,9.57
2023-04-16T11:01:41.871Z,8.82
2023-04-16T11:03:44.867Z,9.00
2023-04-16T11:05:49.560Z,8.70
2023-04-16T11:07:51.255Z,10.73
2023-04-16T11:10:00.095Z,9.70
2023-04-16T11:12:03.003Z,10.48
2023-04-16T11:14:04.936Z,10.00
2023-04-16T11:16:06.858Z,9.05
2023-04-16T11:18:11.452Z,10.23
2023-04-16T11:20:20.528Z,9.45
2023-04-16T11:22:22.934Z,9.68
2023-04-16T11:24:26.223Z,9.65
2023-04-16T11:26:28.951Z,9.40
2023-04-16T11:28:34.688Z,9.25
2023-04-16T11:30:38.000Z,10.02
2023-04-16T11:32:40.065Z,10.32
2023-04-16T11:34:46.054Z,10.93
2023-04-16T11:36:49.559Z,8.63
2023-04-16T11:38:51.523Z,9.43
2023-04-16T11:40:54.229Z,10.85
2023-04-16T11:42:56.214Z,10.10
2023-04-16T11:45:02.361Z,9.48
2023-04-16T11:47:07.759Z,9.23
2023-04-16T11:49:10.052Z,9.48
2023-04-16T11:51:11.908Z,9.93
2023-04-16T11:53:13.616Z,10.45
2023-04-16T11:55:15.667Z,11.07
2023-04-16T11:57:28.187Z,10.05
2023-04-16T11:59:29.992Z,9.13
2023-04-16T12:01:31.663Z,10.73
2023-04-16T12:03:46.300Z,11.30
2023-04-16T12:05:48.424Z,10.60
2023-04-16T12:07:50.149Z,10.88
2023-04-16T12:09:51.920Z,10.48
2023-04-16T12:11:53.868Z,10.65
2023-04-16T12:14:11.923Z,10.35
2023-04-16T12:16:21.194Z,10.07
2023-04-16T12:18:27.049Z,9.90
2023-04-16T12:20:40.339Z,9.77
2023-04-16T12:22:49.801Z,9.50
2023-04-16T12:24:57.492Z,10.50
2023-04-16T12:27:03.365Z,10.60
2023-04-16T12:29:18.807Z,10.13
2023-04-16T12:31:37.143Z,10.20
2023-04-16T12:33:39.055Z,10.82
2023-04-16T12:35:43.529Z,9.88
2023-04-16T12:37:45.550Z,10.23
2023-04-16T12:39:48.139Z,11.77
2023-04-16T12:41:49.918Z,10.82
2023-04-16T12:43:51.688Z,10.57
2023-04-16T12:45:53.573Z,10.02
2023-04-16T12:47:56.007Z,9.23
2023-04-16T12:49:58.165Z,10.07
2023-04-16T12:51:59.883Z,10.93
2023-04-16T12:54:02.918Z,11.82
2023-04-16T12:56:04.956Z,10.93
2023-04-16T12:58:06.933Z,11.32
2023-04-16T13:00:10.851Z,11.45
2023-04-16T13:02:13.179Z,12.02
2023-04-16T13:04:15.359Z,11.82
2023-04-16T13:06:17.859Z,10.88
2023-04-16T13:08:19.592Z,11.63
2023-04-16T13:10:22.226Z,12.27
2023-04-16T13:12:23.948Z,11.27
2023-04-16T13:14:26.401Z,11.30
2023-04-16T13:16:28.191Z,10.38
2023-04-16T13:18:30.026Z,9.85
2023-04-16T13:20:31.732Z,11.82
2023-04-16T13:22:33.790Z,10.75
2023-04-16T13:24:35.583Z,10.98
2023-04-16T13:26:37.365Z,10.70
2023-04-16T13:28:39.010Z,10.43
2023-04-16T13:30:41.221Z,12.00
2023-04-16T13:32:42.968Z,10.30
2023-04-16T13:34:44.813Z,11.38
2023-04-16T13:36:46.625Z,10.95
2023-04-16T13:38:48.288Z,12.43
2023-04-16T13:40:50.000Z,10.90
2023-04-16T13:42:51.738Z,12.10
2023-04-16T13:44:55.079Z,12.10
2023-04-16T13:46:56.873Z,12.68
2023-04-16T13:48:58.684Z,12.68
2023-04-16T13:51:00.561Z,13.18
2023-04-16T13:53:02.388Z,13.10
2023-04-16T13:55:04.458Z,12.73
2023-04-16T13:57:06.689Z,13.52
2023-04-16T13:59:08.696Z,12.20
2023-04-16T14:01:10.623Z,13.95
2023-04-16T14:03:12.417Z,13.68
2023-04-16T14:05:14.855Z,15.20
2023-04-16T14:07:17.238Z,14.73
2023-04-16T14:09:18.901Z,14.20
2023-04-16T14:11:20.713Z,13.25
2023-04-16T14:13:22.439Z,13.70
2023-04-16T14:15:26.899Z,15.52
2023-04-16T14:17:28.613Z,14.57
2023-04-16T14:19:30.620Z,16.25
2023-04-16T14:21:32.341Z,15.95
2023-04-16T14:23:34.206Z,16.23
2023-04-16T14:25:35.950Z,14.55
2023-04-16T14:27:37.656Z,15.05
2023-04-16T14:29:39.479Z,15.18
2023-04-16T14:31:41.689Z,15.20
2023-04-16T14:33:43.709Z,14.75
2023-04-16T14:35:45.465Z,15.63
2023-04-16T14:37:47.249Z,15.77
2023-04-16T14:39:49.204Z,16.05
2023-04-16T14:41:50.881Z,17.27
2023-04-16T14:43:52.624Z,15.57
2023-04-16T14:45:54.436Z,15.73
2023-04-16T14:47:56.316Z,15.23
2023-04-16T14:49:58.017Z,16.27
2023-04-16T14:52:02.155Z,15.93
2023-04-16T14:54:04.033Z,15.68
2023-04-16T14:56:06.406Z,16.05
2023-04-16T14:58:08.116Z,16.35
2023-04-16T15:00:10.970Z,15.93
2023-04-16T15:02:12.825Z,16.27
2023-04-16T15:04:14.747Z,16.67
2023-04-16T15:06:19.585Z,16.80
2023-04-16T15:08:24.736Z,16.83
2023-04-16T15:10:26.464Z,14.48
2023-04-16T15:12:28.157Z,15.90
2023-04-16T15:14:30.162Z,15.07
2023-04-16T15:16:31.892Z,15.65
2023-04-16T15:18:33.649Z,16.02
2023-04-16T15:20:35.914Z,15.13
2023-04-16T15:22:38.219Z,15.38
2023-04-16T15:24:39.943Z,14.95
2023-04-16T15:26:41.642Z,15.30
2023-04-16T15:28:43.317Z,14.75
2023-04-16T15:30:45.093Z,13.85
2023-04-16T15:32:47.149Z,14.63
2023-04-16T15:34:48.848Z,14.02
2023-04-16T15:36:50.634Z,14.68
2023-04-16T15:38:52.499Z,13.73
2023-04-16T15:40:54.199Z,14.50
2023-04-16T15:42:56.424Z,14.55
2023-04-16T15:44:58.395Z,13.50
2023-04-16T15:47:00.570Z,12.45
2023-04-16T15:49:02.287Z,11.82
2023-04-16T15:51:04.147Z,12.00
2023-04-16T15:53:06.002Z,12.20
2023-04-16T15:55:08.223Z,11.65
2023-04-16T15:57:09.949Z,11.00
2023-04-16T15:59:11.836Z,10.82
2023-04-16T16:01:13.861Z,11.65
2023-04-16T16:03:17.587Z,13.25
2023-04-16T16:05:19.406Z,12.23
2023-04-16T16:07:21.686Z,12.15
2023-04-16T16:09:26.948Z,11.13
2023-04-16T16:11:28.718Z,11.25
2023-04-16T16:13:31.223Z,12.57
2023-04-16T16:15:33.096Z,11.52
2023-04-16T16:17:34.910Z,11.32
2023-04-16T16:19:36.794Z,11.75
2023-04-16T16:21:38.429Z,11.10
2023-04-16T16:23:40.186Z,11.45
2023-04-16T16:25:42.685Z,10.73
2023-04-16T16:27:44.679Z,11.80
2023-04-16T16:29:46.486Z,11.35
2023-04-16T16:31:48.193Z,10.45
2023-04-16T16:33:49.959Z,10.82
2023-04-16T16:35:52.873Z,10.25
2023-04-16T16:37:57.277Z,12.30
2023-04-16T16:39:59.031Z,10.50
2023-04-16T16:42:00.971Z,11.32
2023-04-16T16:44:02.746Z,11.52
2023-04-16T16:46:06.116Z,11.70
2023-04-16T16:48:08.337Z,12.20
2023-04-16T16:50:11.721Z,11.02
2023-04-16T16:52:13.435Z,12.20
2023-04-16T16:54:15.600Z,12.20
2023-04-16T16:56:17.416Z,12.23
2023-04-16T16:58:19.224Z,11.27
2023-04-16T17:00:21.942Z,11.63
2023-04-16T17:02:23.700Z,12.82
2023-04-16T17:04:25.661Z,11.25
2023-04-16T17:06:27.830Z,12.50
2023-04-16T17:08:29.639Z,11.60
2023-04-16T17:10:31.793Z,13.02
2023-04-16T17:12:33.534Z,11.20
2023-04-16T17:14:35.691Z,11.02
2023-04-16T17:16:37.429Z,12.43
2023-04-16T17:18:39.424Z,12.57
2023-04-16T17:20:41.101Z,12.38
2023-04-16T17:22:42.858Z,10.82
2023-04-16T17:24:44.519Z,11.13
2023-04-16T17:26:46.327Z,11.90
2023-04-16T17:28:48.126Z,12.75
2023-04-16T17:30:53.572Z,13.07
2023-04-16T17:32:55.471Z,13.23
2023-04-16T17:34:57.259Z,11.63
2023-04-16T17:36:58.974Z,12.20
2023-04-16T17:39:00.678Z,13.57
2023-04-16T17:41:02.383Z,12.85
2023-04-16T17:43:04.472Z,12.15
2023-04-16T17:45:06.930Z,13.35
2023-04-16T17:47:08.688Z,12.30
2023-04-16T17:49:10.532Z,12.80
2023-04-16T17:51:12.853Z,13.82
2023-04-16T17:53:14.552Z,12.52
2023-04-16T17:55:16.840Z,12.30
2023-04-16T17:57:18.529Z,14.07
2023-04-16T17:59:20.279Z,14.02
2023-04-16T18:01:21.949Z,14.00
2023-04-16T18:03:23.830Z,12.57
2023-04-16T18:05:26.311Z,12.52
2023-04-16T18:07:28.030Z,14.05
2023-04-16T18:09:30.685Z,13.60
2023-04-16T18:11:32.393Z,14.15
2023-04-16T18:13:34.955Z,13.27
2023-04-16T18:15:39.739Z,13.70
2023-04-16T18:17:41.512Z,13.10
2023-04-16T18:19:44.470Z,13.85
2023-04-16T18:21:46.670Z,13.07
2023-04-16T18:23:48.391Z,12.80
2023-04-16T18:25:50.110Z,14.48
2023-04-16T18:27:51.798Z,12.13
2023-04-16T18:29:54.773Z,13.82
2023-04-16T18:31:57.041Z,14.18
2023-04-16T18:33:58.910Z,14.73
2023-04-16T18:36:02.298Z,14.02
2023-04-16T18:38:03.966Z,13.65
2023-04-16T18:40:07.289Z,13.30
2023-04-16T18:42:09.003Z,12.30
2023-04-16T18:44:13.679Z,12.88
2023-04-16T18:46:15.991Z,14.13
2023-04-16T18:48:17.638Z,12.70
2023-04-16T18:50:19.367Z,14.13
2023-04-16T18:52:21.088Z,14.57
2023-04-16T18:54:25.454Z,14.23
2023-04-16T18:56:29.353Z,14.90
2023-04-16T18:58:31.285Z,17.05
2023-04-16T19:00:33.195Z,17.88
2023-04-16T19:02:35.145Z,20.92
2023-04-16T19:04:38.375Z,24.75
2023-04-16T19:06:40.190Z,28.67
2023-04-16T19:08:41.911Z,27.25
2023-04-16T19:10:43.599Z,27.55
2023-04-16T19:12:45.421Z,25.90
2023-04-16T19:14:47.158Z,28.13
2023-04-16T19:16:48.893Z,23.88
2023-04-16T19:18:50.925Z,25.60
2023-04-16T19:20:58.798Z,21.40
2023-04-16T19:23:00.646Z,18.58
2023-04-16T19:25:02.509Z,19.20
2023-04-16T19:27:04.256Z,18.42
2023-04-16T19:29:05.998Z,18.48
2023-04-16T19:31:08.469Z,17.20
2023-04-16T19:33:10.717Z,16.75
2023-04-16T19:35:12.746Z,16.77
2023-04-16T19:37:14.400Z,15.70
2023-04-16T19:39:16.129Z,16.55
2023-04-16T19:41:17.862Z,15.35
2023-04-16T19:43:19.616Z,14.70
2023-04-16T19:45:25.780Z,16.13
2023-04-16T19:47:27.838Z,14.93
2023-04-16T19:49:34.375Z,15.07
2023-04-16T19:51:36.329Z,14.95
2023-04-16T19:53:38.354Z,14.13
2023-04-16T19:55:41.312Z,14.43
2023-04-16T19:57:42.965Z,14.57
2023-04-16T19:59:44.729Z,15.30
2023-04-16T20:01:46.816Z,14.43
2023-04-16T20:03:48.552Z,15.40
2023-04-16T20:05:50.447Z,14.07
2023-04-16T20:07:54.958Z,13.75
2023-04-16T20:09:56.716Z,14.30
2023-04-16T20:11:58.420Z,14.00
2023-04-16T20:14:01.337Z,13.45
2023-04-16T20:16:03.785Z,15.35
2023-04-16T20:18:06.658Z,14.70
2023-04-16T20:20:10.373Z,15.70
2023-04-16T20:22:12.045Z,14.05
2023-04-16T20:24:15.545Z,14.05
2023-04-16T20:26:18.445Z,16.17
2023-04-16T20:28:21.625Z,13.82
2023-04-16T20:30:28.854Z,15.07
2023-04-16T20:32:31.103Z,16.17
2023-04-16T20:34:32.801Z,15.27
2023-04-16T20:36:34.743Z,13.23
2023-04-16T20:38:37.722Z,14.05
2023-04-16T20:40:39.886Z,13.85
2023-04-16T20:42:46.393Z,13.23
2023-04-16T20:44:56.633Z,12.98
2023-04-16T20:46:59.592Z,13.43
2023-04-16T20:49:01.388Z,14.18
2023-04-16T20:51:04.406Z,14.40
2023-04-16T20:53:06.152Z,16.25
2023-04-16T20:55:08.640Z,14.93
2023-04-16T20:57:10.329Z,14.75
2023-04-16T20:59:13.439Z,16.55
2023-04-16T21:01:15.204Z,14.70
2023-04-16T21:03:17.269Z,13.27
2023-04-16T21:05:21.458Z,12.27
2023-04-16T21:07:23.148Z,13.80
2023-04-16T21:09:24.900Z,13.80
2023-04-16T21:11:27.200Z,14.48
2023-04-16T21:13:28.925Z,13.48
2023-04-16T21:15:31.089Z,13.32
2023-04-16T21:17:32.870Z,12.55
2023-04-16T21:19:34.610Z,12.77
2023-04-16T21:21:38.240Z,12.52
2023-04-16T21:23:39.953Z,12.32
2023-04-16T21:25:41.699Z,10.13
2023-04-16T21:27:43.369Z,12.48
2023-04-16T21:29:45.075Z,11.50
2023-04-16T21:31:46.926Z,11.07
2023-04-16T21:33:48.717Z,11.20
2023-04-16T21:35:53.611Z,10.65
2023-04-16T21:37:55.403Z,12.10
2023-04-16T21:40:00.258Z,11.40
2023-04-16T21:42:02.289Z,10.02
2023-04-16T21:44:03.997Z,10.98
2023-04-16T21:46:05.859Z,9.07
2023-04-16T21:48:07.806Z,11.18
2023-04-16T21:50:09.949Z,11.75
2023-04-16T21:52:14.196Z,11.80
2023-04-16T21:54:18.618Z,10.90
2023-04-16T21:56:20.349Z,11.65
2023-04-16T21:58:22.089Z,11.70
2023-04-16T22:00:23.760Z,13.30
2023-04-16T22:02:25.597Z,11.60
2023-04-16T22:04:37.161Z,12.52
2023-04-16T22:06:38.907Z,11.88
2023-04-16T22:08:40.603Z,12.77
2023-04-16T22:10:42.265Z,13.45
2023-04-16T22:12:45.996Z,13.73
2023-04-16T22:14:59.579Z,12.30
2023-04-16T22:17:04.945Z,12.85
2023-04-16T22:19:07.464Z,14.35
2023-04-16T22:21:09.142Z,13.43
2023-04-16T22:23:10.906Z,14.15
2023-04-16T22:25:12.756Z,14.27
2023-04-16T22:27:14.451Z,15.15
2023-04-16T22:29:16.237Z,14.18
2023-04-16T22:31:17.951Z,13.40
2023-04-16T22:33:19.707Z,13.30
2023-04-16T22:35:21.455Z,14.80
2023-04-16T22:37:23.125Z,13.68
2023-04-16T22:39:24.912Z,13.10
2023-04-16T22:41:27.218Z,15.95
2023-04-16T22:43:28.940Z,13.88
2023-04-16T22:45:30.684Z,15.35
2023-04-16T22:47:32.453Z,14.82
2023-04-16T22:49:34.183Z,15.45
2023-04-16T22:51:35.882Z,13.65
2023-04-16T22:53:37.606Z,13.80
2023-04-16T22:55:39.291Z,13.70
2023-04-16T22:57:41.045Z,12.50
2023-04-16T22:59:42.723Z,12.45
2023-04-16T23:01:44.436Z,12.43
2023-04-16T23:03:46.448Z,13.82
2023-04-16T23:05:49.188Z,14.10
2023-04-16T23:07:51.014Z,12.23
2023-04-16T23:09:52.653Z,12.73
2023-04-16T23:11:54.316Z,12.50
2023-04-16T23:13:56.321Z,12.10
2023-04-16T23:15:58.324Z,12.95
2023-04-16T23:18:00.187Z,11.57
2023-04-16T23:20:02.156Z,13.43
2023-04-16T23:22:04.605Z,11.13
2023-04-16T23:24:06.891Z,11.98
2023-04-16T23:26:08.581Z,11.43
2023-04-16T23:28:10.964Z,10.77
2023-04-16T23:30:12.965Z,11.82
2023-04-16T23:32:14.638Z,11.35
2023-04-16T23:34:16.437Z,10.57
2023-04-16T23:36:20.917Z,11.38
2023-04-16T23:38:22.658Z,11.30
2023-04-16T23:40:24.407Z,11.57
2023-04-16T23:42:26.118Z,11.45
2023-04-16T23:44:27.802Z,11.93
2023-04-16T23:46:29.604Z,11.55
2023-04-16T23:48:31.324Z,10.43
2023-04-16T23:50:33.028Z,11.27
2023-04-16T23:52:34.669Z,10.40
2023-04-16T23:54:36.405Z,11.95
2023-04-16T23:56:38.120Z,11.80
2023-04-16T23:58:40.022Z,10.85
